createdAt,value
2018-10-21T00:00:58.465Z,17.90
2018-10-21T00:03:28.740Z,19.13
2018-10-21T00:05:59.240Z,19.43
2018-10-21T00:08:30.138Z,17.63
2018-10-21T00:11:00.630Z,19.80
2018-10-21T00:13:31.210Z,18.40
2018-10-21T00:16:02.275Z,17.00
2018-10-21T00:18:32.829Z,17.80
2018-10-21T00:21:03.699Z,19.40
2018-10-21T00:23:34.179Z,17.60
2018-10-21T00:26:04.800Z,18.07
2018-10-21T00:28:34.962Z,19.20
2018-10-21T00:31:05.641Z,17.13
2018-10-21T00:33:36.332Z,19.77
2018-10-21T00:36:07.192Z,19.53
2018-10-21T00:38:37.453Z,19.07
2018-10-21T00:41:08.134Z,21.13
2018-10-21T00:43:38.774Z,18.87
2018-10-21T00:46:09.350Z,17.53
2018-10-21T00:48:39.638Z,19.10
2018-10-21T00:51:08.137Z,18.70
2018-10-21T00:53:38.656Z,18.63
2018-10-21T00:56:09.379Z,18.20
2018-10-21T00:58:39.933Z,17.57
2018-10-21T01:01:10.634Z,18.77
2018-10-21T01:03:42.744Z,17.30
2018-10-21T01:06:12.800Z,16.90
2018-10-21T01:08:43.983Z,18.50
2018-10-21T01:11:14.508Z,18.00
2018-10-21T01:13:45.557Z,17.20
2018-10-21T01:16:17.437Z,19.00
2018-10-21T01:18:48.443Z,17.17
2018-10-21T01:21:20.552Z,17.30
2018-10-21T01:23:51.241Z,16.37
2018-10-21T01:26:22.026Z,16.63
2018-10-21T01:28:51.050Z,17.23
2018-10-21T01:31:20.319Z,17.03
2018-10-21T01:33:55.633Z,17.60
2018-10-21T01:36:27.155Z,17.90
2018-10-21T01:38:57.898Z,17.33
2018-10-21T01:41:32.975Z,17.50
2018-10-21T01:44:04.080Z,16.50
2018-10-21T01:46:34.454Z,16.77
2018-10-21T01:49:04.571Z,17.80
2018-10-21T01:51:34.865Z,17.10
2018-10-21T01:54:06.013Z,17.93
2018-10-21T01:56:36.628Z,16.77
2018-10-21T01:59:08.269Z,18.10
2018-10-21T02:01:38.121Z,16.10
2018-10-21T02:04:09.257Z,17.10
2018-10-21T02:06:38.209Z,16.47
2018-10-21T02:09:09.242Z,17.77
2018-10-21T02:11:39.540Z,16.60
2018-10-21T02:14:09.654Z,16.00
2018-10-21T02:16:38.926Z,17.67
2018-10-21T02:19:08.623Z,18.27
2018-10-21T02:21:39.552Z,18.20
2018-10-21T02:24:08.918Z,17.10
2018-10-21T02:26:39.621Z,18.80
2018-10-21T02:29:11.031Z,15.43
2018-10-21T02:31:42.489Z,15.60
2018-10-21T02:34:11.916Z,17.37
2018-10-21T02:36:41.958Z,16.47
2018-10-21T02:39:10.614Z,16.43
2018-10-21T02:41:55.011Z,16.40
2018-10-21T02:44:26.192Z,16.53
2018-10-21T02:46:57.856Z,16.03
2018-10-21T02:49:28.249Z,15.60
2018-10-21T02:52:03.226Z,16.70
2018-10-21T02:54:33.471Z,16.20
2018-10-21T02:57:05.055Z,17.03
2018-10-21T02:59:35.738Z,18.70
2018-10-21T03:02:06.832Z,18.03
2018-10-21T03:04:37.306Z,18.93
2018-10-21T03:07:05.775Z,17.43
2018-10-21T03:09:37.074Z,19.67
2018-10-21T03:12:06.915Z,19.83
2018-10-21T03:14:35.855Z,18.93
2018-10-21T03:17:07.546Z,18.83
2018-10-21T03:19:37.203Z,18.60
2018-10-21T03:22:08.110Z,20.97
2018-10-21T03:24:37.933Z,21.63
2018-10-21T03:27:09.295Z,22.40
2018-10-21T03:29:39.797Z,24.10
2018-10-21T03:32:10.415Z,21.80
2018-10-21T03:34:41.550Z,21.13
2018-10-21T03:37:11.644Z,22.07
2018-10-21T03:39:40.550Z,22.30
2018-10-21T03:42:10.656Z,23.57
2018-10-21T03:44:41.799Z,22.73
2018-10-21T03:47:12.310Z,23.13
2018-10-21T03:49:42.804Z,24.30
2018-10-21T03:52:15.391Z,23.33
2018-10-21T03:54:48.481Z,23.23
2018-10-21T03:57:18.773Z,21.90
2018-10-21T03:59:49.911Z,22.43
2018-10-21T04:02:21.617Z,21.40
2018-10-21T04:04:52.587Z,22.03
2018-10-21T04:07:21.812Z,24.13
2018-10-21T04:09:51.950Z,22.87
2018-10-21T04:12:20.827Z,22.13
2018-10-21T04:14:50.144Z,21.37
2018-10-21T04:17:20.703Z,24.07
2018-10-21T04:19:51.216Z,21.97
2018-10-21T04:22:21.551Z,22.40
2018-10-21T04:24:53.149Z,22.30
2018-10-21T04:27:23.425Z,22.30
2018-10-21T04:29:55.045Z,21.67
2018-10-21T04:32:25.588Z,22.27
2018-10-21T04:34:56.484Z,21.97
2018-10-21T04:37:38.069Z,20.87
2018-10-21T04:40:16.989Z,20.60
2018-10-21T04:42:48.071Z,20.27
2018-10-21T04:45:21.095Z,20.70
2018-10-21T04:47:51.729Z,20.47
2018-10-21T04:50:24.176Z,21.10
2018-10-21T04:52:53.952Z,23.60
2018-10-21T04:55:24.677Z,22.77
2018-10-21T04:57:54.492Z,23.37
2018-10-21T05:00:24.852Z,21.00
2018-10-21T05:02:56.089Z,22.50
2018-10-21T05:05:27.018Z,21.93
2018-10-21T05:07:58.229Z,22.40
2018-10-21T05:10:35.072Z,21.87
2018-10-21T05:13:05.568Z,22.00
2018-10-21T05:15:36.886Z,21.80
2018-10-21T05:18:06.526Z,24.03
2018-10-21T05:20:35.761Z,22.57
2018-10-21T05:23:07.589Z,21.87
2018-10-21T05:25:37.246Z,23.70
2018-10-21T05:28:06.758Z,22.93
2018-10-21T05:30:35.649Z,23.50
2018-10-21T05:33:04.312Z,23.33
2018-10-21T05:35:35.294Z,24.13
2018-10-21T05:38:07.064Z,21.70
2018-10-21T05:40:37.801Z,22.87
2018-10-21T05:43:08.030Z,23.30
2018-10-21T05:45:38.143Z,24.87
2018-10-21T05:48:08.625Z,24.70
2018-10-21T05:50:39.358Z,24.37
2018-10-21T05:53:09.220Z,24.23
2018-10-21T05:55:38.272Z,24.90
2018-10-21T05:58:09.121Z,23.47
2018-10-21T06:00:40.138Z,24.00
2018-10-21T06:03:10.103Z,24.40
2018-10-21T06:05:45.406Z,23.27
2018-10-21T06:08:14.332Z,22.50
2018-10-21T06:10:46.979Z,23.10
2018-10-21T06:13:17.398Z,24.40
2018-10-21T06:15:46.593Z,23.33
2018-10-21T06:18:22.196Z,24.57
2018-10-21T06:20:55.695Z,23.80
2018-10-21T06:23:26.632Z,23.20
2018-10-21T06:25:56.347Z,22.20
2018-10-21T06:28:26.784Z,22.03
2018-10-21T06:30:57.619Z,22.70
2018-10-21T06:33:28.124Z,20.13
2018-10-21T06:35:57.258Z,21.57
2018-10-21T06:38:26.202Z,21.13
2018-10-21T06:40:56.172Z,21.60
2018-10-21T06:43:27.432Z,21.70
2018-10-21T06:45:57.746Z,20.87
2018-10-21T06:48:28.626Z,21.87
2018-10-21T06:50:58.821Z,22.50
2018-10-21T06:53:29.231Z,23.13
2018-10-21T06:55:59.536Z,22.87
2018-10-21T06:58:30.517Z,22.57
2018-10-21T07:01:01.139Z,22.57
2018-10-21T07:03:31.608Z,22.97
2018-10-21T07:06:19.692Z,22.70
2018-10-21T07:08:54.504Z,23.50
2018-10-21T07:11:24.081Z,22.30
2018-10-21T07:13:54.771Z,22.43
2018-10-21T07:16:25.956Z,22.33
2018-10-21T07:18:55.605Z,22.23
2018-10-21T07:21:25.082Z,23.50
2018-10-21T07:23:55.312Z,22.67
2018-10-21T07:26:25.778Z,23.10
2018-10-21T07:28:56.159Z,22.67
2018-10-21T07:31:29.872Z,22.47
2018-10-21T07:33:59.127Z,22.80
2018-10-21T07:36:28.924Z,22.33
2018-10-21T07:38:59.389Z,22.13
2018-10-21T07:41:29.207Z,22.80
2018-10-21T07:43:59.622Z,22.67
2018-10-21T07:46:29.224Z,22.77
2018-10-21T07:49:01.003Z,24.97
2018-10-21T07:51:31.931Z,24.80
2018-10-21T07:54:02.987Z,25.47
2018-10-21T07:56:35.425Z,24.80
2018-10-21T07:59:06.113Z,25.00
2018-10-21T08:01:35.502Z,24.80
2018-10-21T08:04:04.839Z,25.50
2018-10-21T08:06:45.056Z,26.53
2018-10-21T08:09:14.624Z,24.67
2018-10-21T08:11:46.844Z,24.43
2018-10-21T08:14:17.146Z,23.33
2018-10-21T08:16:48.208Z,24.00
2018-10-21T08:19:18.080Z,24.17
2018-10-21T08:21:47.315Z,23.63
2018-10-21T08:24:16.377Z,24.20
2018-10-21T08:26:45.734Z,25.70
2018-10-21T08:29:17.233Z,23.03
2018-10-21T08:31:48.645Z,26.93
2018-10-21T08:34:21.210Z,25.20
2018-10-21T08:36:52.065Z,27.90
2018-10-21T08:39:23.471Z,25.80
2018-10-21T08:41:54.787Z,25.77
2018-10-21T08:44:24.129Z,25.73
2018-10-21T08:46:53.352Z,25.97
2018-10-21T08:49:22.930Z,25.70
2018-10-21T08:51:54.282Z,27.80
2018-10-21T08:54:26.662Z,24.80
2018-10-21T08:56:58.640Z,25.70
2018-10-21T08:59:28.432Z,26.13
2018-10-21T09:01:58.824Z,25.50
2018-10-21T09:04:28.242Z,25.80
2018-10-21T09:06:57.933Z,24.77
2018-10-21T09:09:28.356Z,26.80
2018-10-21T09:12:03.875Z,24.73
2018-10-21T09:14:35.137Z,25.10
2018-10-21T09:17:06.340Z,25.40
2018-10-21T09:19:37.873Z,25.60
2018-10-21T09:22:09.389Z,26.53
2018-10-21T09:24:39.282Z,27.13
2018-10-21T09:27:08.787Z,26.30
2018-10-21T09:29:37.980Z,26.23
2018-10-21T09:32:08.245Z,25.10
2018-10-21T09:34:38.494Z,26.20
2018-10-21T09:37:09.699Z,25.60
2018-10-21T09:39:40.485Z,25.57
2018-10-21T09:42:10.807Z,25.53
2018-10-21T09:44:40.050Z,26.13
2018-10-21T09:47:10.081Z,26.17
2018-10-21T09:49:39.660Z,24.90
2018-10-21T09:52:12.011Z,23.93
2018-10-21T09:54:44.520Z,22.90
2018-10-21T09:57:14.929Z,22.23
2018-10-21T09:59:45.481Z,24.00
2018-10-21T10:02:21.487Z,22.27
2018-10-21T10:04:53.886Z,24.97
2018-10-21T10:07:24.384Z,23.97
2018-10-21T10:09:55.804Z,23.20
2018-10-21T10:12:25.145Z,21.37
2018-10-21T10:14:54.736Z,22.30
2018-10-21T10:17:26.942Z,22.30
2018-10-21T10:19:56.504Z,23.03
2018-10-21T10:22:27.073Z,22.10
2018-10-21T10:24:58.711Z,24.17
2018-10-21T10:27:29.857Z,21.97
2018-10-21T10:29:59.577Z,21.93
2018-10-21T10:32:30.054Z,22.40
2018-10-21T10:34:58.843Z,21.37
2018-10-21T10:37:29.391Z,19.80
2018-10-21T10:39:59.582Z,20.97
2018-10-21T10:42:29.123Z,21.17
2018-10-21T10:44:59.046Z,20.77
2018-10-21T10:47:31.212Z,19.90
2018-10-21T10:50:01.563Z,20.77
2018-10-21T10:52:32.674Z,20.47
2018-10-21T10:55:03.108Z,19.80
2018-10-21T10:57:33.479Z,21.17
2018-10-21T11:00:04.196Z,19.73
2018-10-21T11:02:34.841Z,19.60
2018-10-21T11:05:04.857Z,19.00
2018-10-21T11:07:33.365Z,18.42
2018-10-21T11:10:03.946Z,18.43
2018-10-21T11:12:33.250Z,19.17
2018-10-21T11:15:03.261Z,17.40
2018-10-21T11:17:33.029Z,15.93
2018-10-21T11:20:03.555Z,16.03
2018-10-21T11:22:33.975Z,17.13
2018-10-21T11:25:04.837Z,15.53
2018-10-21T11:27:34.171Z,14.77
2018-10-21T11:30:04.852Z,15.30
2018-10-21T11:32:35.200Z,14.40
2018-10-21T11:35:06.236Z,13.07
2018-10-21T11:37:36.307Z,12.77
2018-10-21T11:40:07.337Z,12.77
2018-10-21T11:42:38.110Z,12.00
2018-10-21T11:45:08.222Z,12.00
2018-10-21T11:47:38.581Z,12.63
2018-10-21T11:50:10.677Z,12.33
2018-10-21T11:52:41.258Z,11.63
2018-10-21T11:55:11.821Z,12.10
2018-10-21T11:57:40.744Z,11.20
2018-10-21T12:00:11.280Z,11.90
2018-10-21T12:02:41.492Z,11.47
2018-10-21T12:05:11.294Z,12.57
2018-10-21T12:07:42.193Z,9.43
2018-10-21T12:10:12.303Z,8.30
2018-10-21T12:12:41.757Z,8.70
2018-10-21T12:15:15.664Z,8.40
2018-10-21T12:17:47.045Z,7.17
2018-10-21T12:20:17.475Z,6.47
2018-10-21T12:22:47.020Z,6.40
2018-10-21T12:25:17.864Z,6.40
2018-10-21T12:27:48.192Z,6.03
2018-10-21T12:30:19.601Z,5.57
2018-10-21T12:32:50.484Z,5.30
2018-10-21T12:35:22.137Z,5.70
2018-10-21T12:37:58.264Z,5.47
2018-10-21T12:40:29.339Z,4.60
2018-10-21T12:42:59.873Z,4.67
2018-10-21T12:45:31.128Z,3.80
2018-10-21T12:48:01.816Z,4.23
2018-10-21T12:50:32.064Z,4.87
2018-10-21T12:53:03.290Z,5.37
2018-10-21T12:55:34.369Z,4.60
2018-10-21T12:58:06.051Z,3.97
2018-10-21T13:00:34.626Z,4.73
2018-10-21T13:03:04.571Z,4.50
2018-10-21T13:05:34.934Z,4.00
2018-10-21T13:08:05.807Z,3.57
2018-10-21T13:10:35.901Z,3.83
2018-10-21T13:13:06.813Z,3.83
2018-10-21T13:15:37.117Z,3.13
2018-10-21T13:18:08.087Z,3.10
2018-10-21T13:20:38.952Z,3.10
2018-10-21T13:23:10.031Z,3.23
2018-10-21T13:25:39.708Z,3.53
2018-10-21T13:28:09.817Z,3.30
2018-10-21T13:30:40.353Z,3.37
2018-10-21T13:33:11.262Z,2.87
2018-10-21T13:35:41.711Z,3.00
2018-10-21T13:38:12.491Z,3.20
2018-10-21T13:40:43.131Z,3.03
2018-10-21T13:43:15.406Z,2.73
2018-10-21T13:45:45.325Z,2.90
2018-10-21T13:48:20.648Z,3.00
2018-10-21T13:50:50.913Z,2.30
2018-10-21T13:53:20.175Z,2.10
2018-10-21T13:55:51.974Z,2.57
2018-10-21T13:58:23.028Z,2.50
2018-10-21T14:00:52.437Z,2.93
2018-10-21T14:03:24.896Z,2.33
2018-10-21T14:05:56.048Z,2.60
2018-10-21T14:08:31.369Z,2.50
2018-10-21T14:11:00.704Z,2.43
2018-10-21T14:13:33.156Z,2.93
2018-10-21T14:16:03.367Z,2.60
2018-10-21T14:18:35.548Z,2.43
2018-10-21T14:21:06.750Z,2.20
2018-10-21T14:23:36.595Z,2.30
2018-10-21T14:26:06.070Z,2.60
2018-10-21T14:28:36.642Z,2.50
2018-10-21T14:31:07.308Z,2.80
2018-10-21T14:33:37.374Z,2.57
2018-10-21T14:36:07.248Z,2.33
2018-10-21T14:38:38.289Z,2.40
2018-10-21T14:41:09.194Z,2.37
2018-10-21T14:43:40.516Z,2.20
2018-10-21T14:46:12.793Z,2.67
2018-10-21T14:48:42.835Z,2.50
2018-10-21T14:51:12.783Z,2.50
2018-10-21T14:53:43.292Z,2.57
2018-10-21T14:56:13.837Z,2.60
2018-10-21T14:58:44.123Z,2.97
2018-10-21T15:01:13.758Z,2.57
2018-10-21T15:03:44.173Z,2.87
2018-10-21T15:06:13.745Z,2.80
2018-10-21T15:08:44.158Z,2.57
2018-10-21T15:11:13.733Z,2.60
2018-10-21T15:13:44.384Z,2.70
2018-10-21T15:16:15.557Z,3.17
2018-10-21T15:18:45.642Z,2.60
2018-10-21T15:21:21.522Z,3.33
2018-10-21T15:23:51.632Z,2.43
2018-10-21T15:26:22.362Z,2.33
2018-10-21T15:28:52.681Z,2.40
2018-10-21T15:31:23.388Z,2.23
2018-10-21T15:33:54.429Z,2.80
2018-10-21T15:36:24.042Z,2.80
2018-10-21T15:38:54.229Z,2.27
2018-10-21T15:41:24.888Z,2.83
2018-10-21T15:43:54.730Z,2.57
2018-10-21T15:46:24.921Z,2.43
2018-10-21T15:48:55.735Z,2.30
2018-10-21T15:51:26.359Z,2.57
2018-10-21T15:53:55.613Z,2.80
2018-10-21T15:56:26.196Z,2.23
2018-10-21T15:58:56.289Z,2.33
2018-10-21T16:01:25.631Z,2.30
2018-10-21T16:03:54.926Z,2.13
2018-10-21T16:06:25.440Z,2.27
2018-10-21T16:08:56.865Z,2.10
2018-10-21T16:11:28.036Z,2.40
2018-10-21T16:13:59.609Z,2.40
2018-10-21T16:16:30.652Z,2.10
2018-10-21T16:19:01.086Z,4.43
2018-10-21T16:21:34.826Z,3.53
2018-10-21T16:24:05.505Z,3.67
2018-10-21T16:26:37.739Z,3.70
2018-10-21T16:29:06.536Z,3.57
2018-10-21T16:31:37.592Z,2.60
2018-10-21T16:34:09.175Z,3.03
2018-10-21T16:36:45.263Z,3.57
2018-10-21T16:39:20.243Z,3.87
2018-10-21T16:41:50.644Z,2.70
2018-10-21T16:44:21.645Z,3.10
2018-10-21T16:46:52.155Z,3.60
2018-10-21T16:49:22.626Z,3.20
2018-10-21T16:51:53.163Z,4.30
2018-10-21T16:54:24.032Z,4.80
2018-10-21T16:56:55.391Z,5.13
2018-10-21T16:59:25.729Z,4.30
2018-10-21T17:01:55.985Z,4.80
2018-10-21T17:04:26.663Z,4.37
2018-10-21T17:06:57.069Z,5.43
2018-10-21T17:09:32.059Z,4.93
2018-10-21T17:12:02.042Z,4.30
2018-10-21T17:14:32.409Z,4.20
2018-10-21T17:17:02.486Z,3.80
2018-10-21T17:19:32.626Z,4.70
2018-10-21T17:22:01.297Z,4.30
2018-10-21T17:24:32.220Z,5.00
2018-10-21T17:27:03.009Z,5.20
2018-10-21T17:29:33.620Z,4.40
2018-10-21T17:32:02.886Z,4.90
2018-10-21T17:34:33.404Z,5.20
2018-10-21T17:37:03.915Z,5.40
2018-10-21T17:39:34.257Z,6.40
2018-10-21T17:42:04.845Z,5.97
2018-10-21T17:44:35.351Z,6.83
2018-10-21T17:47:05.797Z,6.17
2018-10-21T17:49:36.353Z,6.90
2018-10-21T17:52:06.739Z,6.97
2018-10-21T17:54:37.165Z,7.33
2018-10-21T17:57:07.678Z,7.03
2018-10-21T17:59:38.695Z,6.87
2018-10-21T18:02:09.279Z,7.17
2018-10-21T18:04:40.957Z,8.33
2018-10-21T18:07:11.632Z,11.90
2018-10-21T18:09:41.668Z,11.77
2018-10-21T18:12:12.010Z,10.70
2018-10-21T18:14:42.324Z,11.00
2018-10-21T18:17:12.151Z,12.63
2018-10-21T18:19:41.358Z,10.70
2018-10-21T18:22:12.750Z,9.13
2018-10-21T18:24:42.960Z,12.20
2018-10-21T18:27:13.213Z,9.90
2018-10-21T18:29:43.681Z,10.20
2018-10-21T18:32:14.307Z,9.37
2018-10-21T18:34:45.893Z,8.87
2018-10-21T18:37:16.691Z,9.20
2018-10-21T18:39:46.795Z,9.43
2018-10-21T18:42:17.401Z,9.40
2018-10-21T18:44:48.067Z,8.83
2018-10-21T18:47:20.054Z,12.63
2018-10-21T18:49:50.524Z,10.43
2018-10-21T18:52:21.804Z,9.63
2018-10-21T18:54:53.658Z,8.80
2018-10-21T18:57:23.829Z,10.07
2018-10-21T18:59:54.651Z,8.93
2018-10-21T19:02:24.979Z,9.30
2018-10-21T19:04:54.397Z,9.40
2018-10-21T19:07:24.916Z,9.77
2018-10-21T19:09:55.922Z,8.53
2018-10-21T19:12:26.922Z,8.50
2018-10-21T19:14:57.437Z,7.63
2018-10-21T19:17:27.793Z,8.37
2018-10-21T19:19:58.814Z,8.70
2018-10-21T19:22:29.231Z,8.43
2018-10-21T19:25:00.084Z,9.43
2018-10-21T19:27:30.549Z,9.10
2018-10-21T19:30:01.816Z,13.47
2018-10-21T19:32:32.743Z,13.87
2018-10-21T19:35:03.058Z,11.53
2018-10-21T19:37:34.163Z,18.47
2018-10-21T19:40:05.836Z,17.77
2018-10-21T19:42:36.400Z,13.07
2018-10-21T19:45:07.851Z,10.17
2018-10-21T19:47:38.550Z,9.97
2018-10-21T19:50:10.854Z,10.40
2018-10-21T19:52:40.158Z,10.00
2018-10-21T19:55:09.042Z,10.43
2018-10-21T19:57:39.747Z,10.83
2018-10-21T20:00:11.604Z,10.60
2018-10-21T20:02:40.205Z,11.43
2018-10-21T20:05:09.133Z,12.23
2018-10-21T20:07:40.326Z,11.57
2018-10-21T20:10:12.299Z,11.73
2018-10-21T20:12:41.915Z,11.60
2018-10-21T20:15:12.462Z,12.57
2018-10-21T20:17:42.291Z,12.03
2018-10-21T20:20:14.134Z,13.10
2018-10-21T20:22:44.507Z,13.77
2018-10-21T20:25:16.527Z,11.10
2018-10-21T20:27:47.261Z,12.40
2018-10-21T20:30:16.484Z,12.80
2018-10-21T20:32:47.165Z,13.90
2018-10-21T20:35:16.634Z,12.03
2018-10-21T20:37:47.630Z,13.20
2018-10-21T20:40:23.758Z,12.60
2018-10-21T20:42:54.521Z,11.50
2018-10-21T20:45:25.223Z,11.20
2018-10-21T20:47:56.136Z,10.40
2018-10-21T20:50:27.045Z,11.43
2018-10-21T20:52:56.355Z,11.10
2018-10-21T20:55:27.158Z,11.67
2018-10-21T20:57:57.841Z,10.63
2018-10-21T21:00:27.976Z,10.77
2018-10-21T21:02:58.238Z,9.80
2018-10-21T21:05:27.665Z,9.70
2018-10-21T21:07:57.410Z,9.80
2018-10-21T21:10:26.971Z,9.70
2018-10-21T21:12:58.923Z,10.00
2018-10-21T21:15:29.498Z,11.93
2018-10-21T21:18:00.435Z,9.40
2018-10-21T21:20:32.875Z,10.43
2018-10-21T21:23:03.910Z,9.80
2018-10-21T21:25:36.831Z,9.40
2018-10-21T21:28:08.914Z,9.57
2018-10-21T21:30:39.143Z,10.27
2018-10-21T21:33:11.455Z,10.40
2018-10-21T21:35:41.954Z,9.80
2018-10-21T21:38:13.453Z,10.23
2018-10-21T21:40:43.393Z,9.57
2018-10-21T21:43:15.130Z,9.70
2018-10-21T21:45:46.175Z,9.40
2018-10-21T21:48:16.469Z,9.77
2018-10-21T21:50:45.130Z,9.40
2018-10-21T21:53:16.172Z,9.70
2018-10-21T21:55:47.263Z,10.77
2018-10-21T21:58:17.354Z,10.90
2018-10-21T22:00:46.912Z,11.00
2018-10-21T22:03:18.346Z,11.40
2018-10-21T22:05:48.733Z,11.90
2018-10-21T22:08:20.873Z,11.10
2018-10-21T22:10:50.408Z,11.40
2018-10-21T22:13:20.737Z,10.63
2018-10-21T22:15:51.159Z,11.50
2018-10-21T22:18:21.776Z,10.73
2018-10-21T22:20:53.547Z,11.70
2018-10-21T22:23:24.316Z,11.77
2018-10-21T22:25:59.666Z,11.17
2018-10-21T22:28:30.464Z,11.97
2018-10-21T22:31:01.180Z,11.30
2018-10-21T22:33:32.137Z,11.00
2018-10-21T22:36:03.147Z,11.00
2018-10-21T22:38:35.224Z,10.47
2018-10-21T22:41:06.163Z,10.60
2018-10-21T22:43:36.752Z,11.03
2018-10-21T22:46:07.420Z,10.40
2018-10-21T22:48:39.138Z,9.23
2018-10-21T22:51:10.489Z,10.47
2018-10-21T22:53:41.257Z,9.93
2018-10-21T22:56:11.360Z,9.57
2018-10-21T22:58:44.360Z,9.53
2018-10-21T23:01:14.696Z,9.60
2018-10-21T23:03:44.922Z,10.63
2018-10-21T23:06:15.594Z,8.83
2018-10-21T23:08:46.773Z,9.33
2018-10-21T23:11:16.650Z,9.90
2018-10-21T23:13:45.613Z,10.30
2018-10-21T23:16:15.289Z,12.80
2018-10-21T23:18:45.728Z,13.93
2018-10-21T23:21:14.774Z,13.90
2018-10-21T23:23:43.987Z,14.00
2018-10-21T23:26:13.117Z,12.43
2018-10-21T23:28:43.203Z,12.43
2018-10-21T23:31:12.633Z,11.87
2018-10-21T23:33:41.829Z,11.00
2018-10-21T23:36:11.555Z,11.50
2018-10-21T23:38:43.275Z,9.87
2018-10-21T23:41:13.091Z,10.30
2018-10-21T23:43:42.680Z,9.77
2018-10-21T23:46:12.415Z,10.27
2018-10-21T23:48:42.578Z,9.40
2018-10-21T23:51:13.405Z,9.10
2018-10-21T23:53:44.867Z,8.87
2018-10-21T23:56:15.188Z,9.50
2018-10-21T23:58:46.683Z,8.83
